Time;durP1;ratioP1;P1;durP2;ratioP2;P2;SDS_P1;SDS_P2;PMS_P1;PMS_P2;Temp;Humidity;BMP_temperature;BMP_pressure;BME280_temperature;BME280_humidity;BME280_pressure;Samples;Min_cycle;Max_cycle;Signal;HPM_P1;HPM_P2
2022/05/10 00:01:02;;;;;;;29.38;19.55;;;12.00;99.90;;;;;;5106267;29;20058;-74
2022/05/10 00:03:36;;;;;;;30.23;22.15;;;12.00;99.90;;;;;;5102712;28;20059;-73
2022/05/10 00:06:09;;;;;;;27.02;19.88;;;11.90;99.90;;;;;;5090369;28;20062;-73
2022/05/10 00:08:43;;;;;;;23.45;18.95;;;11.90;99.90;;;;;;5099850;28;20125;-73
2022/05/10 00:11:15;;;;;;;23.67;19.60;;;11.90;99.90;;;;;;5123695;28;20047;-74
2022/05/10 00:13:48;;;;;;;25.98;20.70;;;11.90;99.90;;;;;;5105095;28;20059;-73
2022/05/10 00:16:20;;;;;;;27.05;21.27;;;12.00;99.90;;;;;;5103016;28;21126;-74
2022/05/10 00:18:53;;;;;;;23.25;19.70;;;11.90;99.90;;;;;;5120504;28;20050;-74
2022/05/10 00:21:26;;;;;;;28.98;22.00;;;11.80;99.90;;;;;;5110276;28;20067;-74
2022/05/10 00:23:58;;;;;;;26.77;21.30;;;11.70;99.90;;;;;;5107763;28;20050;-75
2022/05/10 00:26:31;;;;;;;25.83;20.80;;;11.70;99.90;;;;;;5100515;28;20082;-73
2022/05/10 00:29:04;;;;;;;25.27;19.20;;;11.70;99.90;;;;;;5108159;28;20708;-73
2022/05/10 00:31:36;;;;;;;24.40;19.13;;;11.70;99.90;;;;;;5120766;28;20062;-72
2022/05/10 00:34:09;;;;;;;32.22;21.77;;;11.70;99.90;;;;;;5097026;28;20043;-74
2022/05/10 00:36:42;;;;;;;28.27;22.00;;;11.70;99.90;;;;;;5106538;28;20766;-74
2022/05/10 00:39:14;;;;;;;25.80;19.50;;;11.60;99.90;;;;;;5093541;28;20047;-73
2022/05/10 00:42:03;;;;;;;29.52;23.15;;;11.70;99.90;;;;;;5102866;28;20823;-73
2022/05/10 00:44:45;;;;;;;26.45;20.08;;;11.50;99.90;;;;;;5095502;28;20070;-73
2022/05/10 00:47:28;;;;;;;25.92;20.38;;;11.50;99.90;;;;;;5100583;28;20055;-73
2022/05/10 00:50:17;;;;;;;24.95;20.13;;;11.60;99.90;;;;;;5098778;28;20479;-72
2022/05/10 00:52:53;;;;;;;30.15;20.90;;;11.60;99.90;;;;;;5101323;28;20059;-73
2022/05/10 00:55:50;;;;;;;29.05;20.73;;;11.70;99.90;;;;;;5107232;28;20155;-74
2022/05/10 00:58:41;;;;;;;28.95;20.25;;;11.60;99.90;;;;;;5101282;28;20046;-73
2022/05/10 01:01:19;;;;;;;30.45;23.23;;;11.50;99.90;;;;;;5096926;28;20135;-73
2022/05/10 01:04:00;;;;;;;29.67;21.83;;;11.40;99.90;;;;;;5102148;28;20071;-74
2022/05/10 01:06:50;;;;;;;25.77;20.10;;;11.30;99.90;;;;;;5091164;28;20066;-72
2022/05/10 01:09:49;;;;;;;28.10;21.73;;;11.30;99.90;;;;;;5085265;29;20062;-74
2022/05/10 01:12:42;;;;;;;29.17;20.35;;;11.30;99.90;;;;;;5101879;28;20051;-74
2022/05/10 01:15:18;;;;;;;25.58;20.55;;;11.30;99.90;;;;;;5118344;28;20047;-73
2022/05/10 01:17:56;;;;;;;33.28;23.08;;;11.20;99.90;;;;;;5093476;28;20050;-73
2022/05/10 01:20:51;;;;;;;26.92;21.48;;;11.20;99.90;;;;;;5099370;28;20082;-74
2022/05/10 01:23:26;;;;;;;;;;;11.10;99.90;;;;;;5102414;28;20612;-74
2022/05/10 01:26:14;;;;;;;22.77;18.35;;;10.90;99.90;;;;;;5097949;28;20642;-74
2022/05/10 01:28:54;;;;;;;25.73;20.38;;;11.10;99.90;;;;;;5103065;28;20054;-74
2022/05/10 01:31:37;;;;;;;25.00;18.48;;;11.10;99.90;;;;;;5102971;28;20051;-74
2022/05/10 01:34:15;;;;;;;23.05;19.38;;;11.10;99.90;;;;;;5108584;28;20051;-74
2022/05/10 01:36:59;;;;;;;25.52;19.63;;;11.10;99.90;;;;;;5107878;28;20055;-73
2022/05/10 01:39:47;;;;;;;24.42;20.67;;;11.00;99.90;;;;;;5090160;28;20051;-73
2022/05/10 01:42:27;;;;;;;27.60;21.27;;;10.90;99.90;;;;;;5111711;28;20039;-74
2022/05/10 01:45:10;;;;;;;29.17;20.05;;;10.90;99.90;;;;;;5109875;28;20043;-74
2022/05/10 01:47:55;;;;;;;26.33;20.13;;;10.90;99.90;;;;;;5094296;28;20051;-73
2022/05/10 01:51:14;;;;;;;22.90;18.38;;;10.80;99.90;;;;;;5098444;28;20059;-73
2022/05/10 01:53:48;;;;;;;26.70;19.38;;;10.80;99.90;;;;;;5015463;29;20061;-72
2022/05/10 01:56:24;;;;;;;23.97;18.10;;;10.80;99.90;;;;;;5030290;29;20056;-73
2022/05/10 01:58:57;;;;;;;23.35;17.40;;;10.70;99.90;;;;;;5071444;28;20385;-73
2022/05/10 02:01:35;;;;;;;24.17;17.83;;;10.70;99.90;;;;;;5101783;28;20586;-73
2022/05/10 02:04:14;;;;;;;24.13;18.20;;;10.70;99.90;;;;;;5094258;28;20427;-74
2022/05/10 02:06:55;;;;;;;25.13;18.23;;;10.70;99.90;;;;;;5102876;28;20051;-72
2022/05/10 02:10:01;;;;;;;26.35;18.20;;;10.60;99.90;;;;;;5104481;28;20051;-73
2022/05/10 02:12:46;;;;;;;23.55;17.15;;;10.60;99.90;;;;;;5108865;28;20522;-73
2022/05/10 02:15:23;;;;;;;24.63;18.70;;;10.60;99.90;;;;;;5120062;28;20057;-73
2022/05/10 02:18:14;;;;;;;30.83;19.77;;;10.50;99.90;;;;;;5101842;28;20051;-73
2022/05/10 02:21:13;;;;;;;22.90;16.67;;;10.50;99.90;;;;;;5109145;28;20059;-73
2022/05/10 02:23:48;;;;;;;22.20;16.60;;;10.50;99.90;;;;;;5102000;28;20062;-75
2022/05/10 02:26:28;;;;;;;22.88;17.40;;;10.50;99.90;;;;;;5096031;28;20055;-72
2022/05/10 02:29:35;;;;;;;24.58;17.25;;;10.50;99.90;;;;;;5102417;28;20052;-73
2022/05/10 02:35:13;;;;;;;22.85;17.27;;;10.40;99.90;;;;;;5094119;28;20047;-73
2022/05/10 02:37:46;;;;;;;21.95;17.23;;;10.40;99.90;;;;;;5105680;28;20043;-73
2022/05/10 02:40:19;;;;;;;23.80;18.80;;;10.30;99.90;;;;;;5107539;28;20047;-73
2022/05/10 02:42:52;;;;;;;27.02;19.70;;;10.20;99.90;;;;;;5102492;28;20055;-73
2022/05/10 02:45:26;;;;;;;26.88;20.00;;;10.10;99.90;;;;;;5103804;28;20047;-74
2022/05/10 02:48:02;;;;;;;26.48;19.13;;;10.00;99.90;;;;;;5105517;28;20055;-72
2022/05/10 02:50:35;;;;;;;23.00;17.15;;;10.00;99.90;;;;;;5103124;28;20047;-73
2022/05/10 02:53:08;;;;;;;23.77;18.10;;;10.00;99.90;;;;;;5077924;28;20058;-72
2022/05/10 02:55:43;;;;;;;19.48;16.10;;;10.00;99.90;;;;;;5103165;28;20488;-74
2022/05/10 02:58:18;;;;;;;23.42;16.30;;;10.00;99.90;;;;;;5098439;28;20090;-72
2022/05/10 03:00:56;;;;;;;21.67;15.07;;;10.00;99.90;;;;;;5095253;28;20051;-73
2022/05/10 03:03:30;;;;;;;22.08;17.38;;;10.00;99.90;;;;;;5105999;28;20376;-73
2022/05/10 03:06:03;;;;;;;26.17;18.88;;;9.90;99.90;;;;;;5106279;28;20475;-74
2022/05/10 03:08:36;;;;;;;22.67;16.70;;;9.80;99.90;;;;;;5107420;28;20055;-74
2022/05/10 03:11:08;;;;;;;22.85;17.63;;;9.80;99.90;;;;;;5109210;28;20069;-74
2022/05/10 03:13:41;;;;;;;22.45;17.70;;;9.80;99.90;;;;;;5105552;28;20526;-72
2022/05/10 03:16:18;;;;;;;29.13;21.02;;;9.70;99.90;;;;;;5109230;28;20063;-74
2022/05/10 03:18:52;;;;;;;26.63;17.85;;;9.70;99.90;;;;;;5107111;28;20066;-73
2022/05/10 03:21:25;;;;;;;28.20;20.02;;;9.60;99.90;;;;;;5098679;28;20611;-73
2022/05/10 03:23:58;;;;;;;29.03;19.37;;;9.60;99.90;;;;;;5096777;28;20051;-73
2022/05/10 03:26:31;;;;;;;25.00;17.85;;;9.50;99.90;;;;;;5089538;28;20062;-73
2022/05/10 03:29:04;;;;;;;25.70;17.58;;;9.60;99.90;;;;;;5085180;29;20058;-75
2022/05/10 03:31:36;;;;;;;26.50;20.03;;;9.60;99.90;;;;;;5108011;28;20047;-73
2022/05/10 03:37:02;;;;;;;36.92;21.25;;;9.60;99.90;;;;;;5098628;29;20042;-73
2022/05/10 03:39:35;;;;;;;26.27;19.13;;;9.60;99.90;;;;;;5110587;28;20234;-72
2022/05/10 03:42:09;;;;;;;29.10;20.58;;;9.50;99.90;;;;;;5115341;28;20062;-73
2022/05/10 03:44:42;;;;;;;25.08;18.17;;;9.40;99.90;;;;;;5107112;28;20051;-71
2022/05/10 03:47:15;;;;;;;30.42;20.25;;;9.50;99.90;;;;;;5106541;28;20419;-73
2022/05/10 03:49:48;;;;;;;27.50;20.20;;;9.50;99.90;;;;;;5104162;28;20043;-74
2022/05/10 03:52:20;;;;;;;26.07;17.97;;;9.40;99.90;;;;;;5068565;29;20062;-73
2022/05/10 03:54:55;;;;;;;27.90;18.85;;;9.40;99.90;;;;;;5095544;28;20298;-73
2022/05/10 03:57:29;;;;;;;28.52;19.08;;;9.50;99.90;;;;;;5105792;28;20050;-72
2022/05/10 04:00:05;;;;;;;25.83;18.95;;;9.50;99.90;;;;;;5067852;29;20914;-73
2022/05/10 04:02:45;;;;;;;33.38;21.08;;;9.50;99.90;;;;;;5111142;28;20089;-74
2022/05/10 04:05:19;;;;;;;29.15;21.08;;;9.40;99.90;;;;;;5095284;29;20047;-74
2022/05/10 04:07:52;;;;;;;25.33;18.98;;;9.40;99.90;;;;;;5102648;28;20058;-74
2022/05/10 04:10:25;;;;;;;27.80;19.70;;;9.50;99.90;;;;;;5103595;28;20051;-74
2022/05/10 04:12:57;;;;;;;25.70;19.73;;;9.50;99.90;;;;;;5098427;28;20043;-73
2022/05/10 04:15:30;;;;;;;26.05;18.20;;;9.50;99.90;;;;;;5075496;29;20419;-75
2022/05/10 04:18:03;;;;;;;20.73;15.70;;;9.50;99.90;;;;;;5066936;29;20051;-74
2022/05/10 04:20:43;;;;;;;22.88;16.60;;;9.60;99.90;;;;;;5099336;28;20530;-74
2022/05/10 04:23:16;;;;;;;22.55;16.92;;;9.70;99.90;;;;;;5075653;29;20214;-74
2022/05/10 04:26:12;;;;;;;24.67;16.45;;;9.80;99.90;;;;;;5085518;28;20054;-74
2022/05/10 04:28:45;;;;;;;19.90;15.32;;;9.80;99.90;;;;;;5084200;28;20407;-76
2022/05/10 04:31:18;;;;;;;29.15;16.95;;;9.80;99.90;;;;;;5054226;28;20048;-73
2022/05/10 04:33:51;;;;;;;19.48;15.07;;;9.80;99.90;;;;;;5093743;28;20135;-74
2022/05/10 04:36:25;;;;;;;24.38;16.05;;;9.80;99.90;;;;;;5093753;28;20159;-73
2022/05/10 04:38:57;;;;;;;22.05;17.08;;;9.80;99.90;;;;;;5087585;28;20055;-75
2022/05/10 04:41:33;;;;;;;19.38;15.15;;;9.80;99.90;;;;;;5089251;28;20608;-74
2022/05/10 04:44:08;;;;;;;22.30;15.60;;;9.90;99.90;;;;;;5088676;28;20051;-75
2022/05/10 04:46:41;;;;;;;21.13;14.95;;;10.00;99.90;;;;;;5093534;28;20135;-73
2022/05/10 04:49:14;;;;;;;;;;;10.10;99.90;;;;;;5075777;28;20400;-73
2022/05/10 04:51:47;;;;;;;27.92;15.02;;;10.00;99.90;;;;;;5098016;28;19927;-73
2022/05/10 04:54:19;;;;;;;24.55;14.57;;;10.10;99.90;;;;;;5092740;28;20058;-73
2022/05/10 04:56:51;;;;;;;20.60;13.07;;;10.20;99.90;;;;;;5098223;28;20051;-74
2022/05/10 04:59:24;;;;;;;19.27;13.13;;;10.30;99.90;;;;;;5090908;28;20423;-73
2022/05/10 05:01:56;;;;;;;19.05;12.65;;;10.40;99.90;;;;;;5090023;28;20823;-72
2022/05/10 05:04:29;;;;;;;18.02;12.60;;;10.50;99.90;;;;;;5115804;28;20062;-72
2022/05/10 05:07:02;;;;;;;18.23;12.88;;;10.60;99.90;;;;;;5104487;28;20058;-73
2022/05/10 05:09:35;;;;;;;18.85;12.48;;;10.70;99.90;;;;;;5084525;28;20063;-73
2022/05/10 05:12:08;;;;;;;17.75;12.57;;;10.80;99.90;;;;;;5080529;28;20063;-72
2022/05/10 05:14:42;;;;;;;18.20;11.55;;;10.90;99.90;;;;;;5096840;28;20047;-73
2022/05/10 05:17:16;;;;;;;18.50;12.55;;;11.00;99.90;;;;;;5086285;28;20051;-72
2022/05/10 05:19:48;;;;;;;17.77;11.98;;;11.00;99.90;;;;;;5089070;28;20131;-73
2022/05/10 05:22:21;;;;;;;16.85;11.38;;;11.20;99.90;;;;;;5096466;28;20316;-73
2022/05/10 05:24:56;;;;;;;16.02;11.30;;;11.30;99.90;;;;;;5082371;29;20062;-74
2022/05/10 05:27:29;;;;;;;16.55;10.93;;;11.40;99.90;;;;;;5101090;28;20055;-73
2022/05/10 05:30:01;;;;;;;15.05;10.05;;;11.60;99.90;;;;;;5078351;29;20058;-73
2022/05/10 05:32:35;;;;;;;;;;;11.60;99.90;;;;;;5101334;28;20059;-74
2022/05/10 05:35:08;;;;;;;13.95;10.02;;;11.70;99.90;;;;;;5086061;28;19931;-74
2022/05/10 05:37:42;;;;;;;14.13;10.35;;;11.80;99.90;;;;;;5086592;28;20048;-72
2022/05/10 05:40:16;;;;;;;18.27;9.50;;;11.90;99.90;;;;;;5090692;28;20039;-73
2022/05/10 05:42:52;;;;;;;14.18;9.13;;;12.00;99.90;;;;;;5108917;28;20055;-73
2022/05/10 05:45:25;;;;;;;;;;;12.20;99.90;;;;;;5108926;28;20051;-73
2022/05/10 05:48:06;;;;;;;13.52;9.80;;;12.20;99.90;;;;;;5121574;28;19922;-73
2022/05/10 05:50:38;;;;;;;19.33;10.35;;;12.40;99.90;;;;;;5108738;28;20054;-73
2022/05/10 05:53:12;;;;;;;16.40;10.25;;;12.40;99.90;;;;;;5100324;28;20047;-74
2022/05/10 05:55:47;;;;;;;14.67;9.00;;;12.60;99.90;;;;;;5117347;28;20062;-72
2022/05/10 05:58:20;;;;;;;14.65;8.93;;;12.80;99.90;;;;;;5114798;28;20054;-73
2022/05/10 06:00:52;;;;;;;12.77;8.45;;;12.90;99.90;;;;;;5107095;28;20822;-73
2022/05/10 06:03:24;;;;;;;14.27;9.18;;;13.00;99.90;;;;;;5108724;28;20047;-75
2022/05/10 06:05:57;;;;;;;12.65;8.48;;;13.20;99.90;;;;;;5106693;28;20059;-74
2022/05/10 06:08:29;;;;;;;14.60;8.38;;;13.40;99.90;;;;;;5109760;28;20055;-74
2022/05/10 06:11:02;;;;;;;14.15;8.65;;;13.50;99.90;;;;;;5106550;28;20594;-73
2022/05/10 06:13:35;;;;;;;13.00;8.05;;;13.70;99.90;;;;;;5117646;28;20054;-74
2022/05/10 06:16:08;;;;;;;17.33;8.88;;;13.80;99.90;;;;;;5105376;28;20047;-73
2022/05/10 06:18:42;;;;;;;10.52;7.80;;;13.90;99.90;;;;;;5108359;28;20054;-73
2022/05/10 06:21:15;;;;;;;11.15;7.63;;;14.00;99.90;;;;;;5107824;28;20054;-73
2022/05/10 06:23:47;;;;;;;11.18;7.97;;;14.20;99.90;;;;;;5107038;28;20543;-74
2022/05/10 06:26:20;;;;;;;12.90;7.38;;;14.30;99.90;;;;;;5110169;28;20515;-75
2022/05/10 06:28:53;;;;;;;12.73;7.95;;;14.50;99.90;;;;;;5109528;28;20058;-75
2022/05/10 06:31:25;;;;;;;12.38;8.50;;;14.60;99.90;;;;;;5108041;28;20378;-73
2022/05/10 06:33:58;;;;;;;17.55;7.28;;;14.70;99.90;;;;;;5108242;28;20047;-74
2022/05/10 06:36:32;;;;;;;16.90;8.25;;;14.90;99.90;;;;;;5108827;28;20043;-75
2022/05/10 06:39:06;;;;;;;11.10;8.40;;;15.00;99.90;;;;;;5125063;28;20051;-74
2022/05/10 06:41:38;;;;;;;14.70;8.70;;;15.10;99.90;;;;;;5108205;28;20043;-73
2022/05/10 06:44:11;;;;;;;27.15;8.85;;;15.20;99.90;;;;;;5110416;28;20051;-74
2022/05/10 06:46:44;;;;;;;12.95;8.70;;;15.30;99.90;;;;;;5112399;28;20491;-73
2022/05/10 06:49:18;;;;;;;14.55;8.27;;;15.40;99.90;;;;;;5115402;28;20062;-73
2022/05/10 06:51:50;;;;;;;12.63;8.13;;;15.50;99.90;;;;;;5101372;28;20059;-73
2022/05/10 06:54:22;;;;;;;16.15;8.23;;;15.50;99.90;;;;;;5114116;28;20492;-74
2022/05/10 06:56:55;;;;;;;13.32;7.75;;;15.70;99.90;;;;;;5097781;29;20066;-73
2022/05/10 06:59:28;;;;;;;11.73;7.55;;;15.90;99.90;;;;;;5113051;28;20055;-74
2022/05/10 07:02:00;;;;;;;14.70;8.18;;;16.00;99.90;;;;;;5111854;28;21121;-72
2022/05/10 07:04:33;;;;;;;10.13;7.90;;;16.10;99.90;;;;;;5082940;29;20086;-73
2022/05/10 07:07:05;;;;;;;11.97;7.77;;;16.20;99.90;;;;;;5110246;28;20530;-73
2022/05/10 07:09:38;;;;;;;9.27;7.97;;;16.30;99.90;;;;;;5111867;28;20615;-74
2022/05/10 07:12:11;;;;;;;12.10;7.47;;;16.40;99.90;;;;;;5111014;28;20630;-73
2022/05/10 07:14:45;;;;;;;9.85;7.60;;;16.60;99.90;;;;;;5110472;28;20058;-74
2022/05/10 07:17:19;;;;;;;10.23;7.47;;;16.70;99.70;;;;;;5109817;28;20043;-73
2022/05/10 07:19:51;;;;;;;15.57;7.75;;;16.80;98.50;;;;;;5110098;28;20058;-74
2022/05/10 07:22:25;;;;;;;10.38;7.53;;;17.00;97.60;;;;;;5110778;28;20063;-74
2022/05/10 07:24:58;;;;;;;9.45;6.72;;;17.10;97.30;;;;;;5111782;28;20549;-74
2022/05/10 07:27:30;;;;;;;9.95;6.78;;;17.30;95.70;;;;;;5128589;28;20074;-74
2022/05/10 07:30:03;;;;;;;9.23;7.17;;;17.30;94.10;;;;;;5110353;28;20074;-74
2022/05/10 07:32:36;;;;;;;9.03;7.17;;;17.40;93.70;;;;;;5127456;28;20629;-74
2022/05/10 07:35:09;;;;;;;8.02;6.20;;;17.50;92.90;;;;;;5113666;28;20051;-74
2022/05/10 07:37:42;;;;;;;11.27;7.25;;;17.50;92.10;;;;;;5110206;28;20043;-74
2022/05/10 07:40:14;;;;;;;10.63;6.82;;;17.70;91.60;;;;;;5111500;28;20039;-74
2022/05/10 07:42:47;;;;;;;10.13;7.22;;;17.80;91.30;;;;;;5128586;28;20051;-74
2022/05/10 07:45:20;;;;;;;8.77;6.45;;;17.90;90.80;;;;;;5110247;28;20058;-74
2022/05/10 07:47:54;;;;;;;8.82;6.93;;;18.00;89.70;;;;;;5106003;28;20950;-74
2022/05/10 07:50:26;;;;;;;7.88;6.22;;;18.30;89.90;;;;;;5109699;28;20043;-74
2022/05/10 07:53:05;;;;;;;8.15;6.40;;;18.40;86.40;;;;;;5095728;29;20070;-75
2022/05/10 07:55:39;;;;;;;8.57;6.75;;;18.30;85.60;;;;;;5126147;28;20681;-74
2022/05/10 07:58:11;;;;;;;10.70;7.22;;;18.50;86.40;;;;;;5112362;28;20486;-74
2022/05/10 08:00:44;;;;;;;14.35;6.13;;;18.60;85.80;;;;;;5109492;28;20051;-73
2022/05/10 08:03:19;;;;;;;8.85;5.78;;;18.70;85.00;;;;;;5113035;28;20054;-74
2022/05/10 08:05:55;;;;;;;9.10;6.28;;;18.80;84.30;;;;;;5126919;28;20087;-74
2022/05/10 08:08:30;;;;;;;9.90;6.93;;;18.90;82.70;;;;;;5112257;28;20693;-72
2022/05/10 08:11:08;;;;;;;8.18;6.78;;;18.90;81.50;;;;;;5103582;28;20407;-72
2022/05/10 08:13:41;;;;;;;7.97;6.35;;;18.90;81.70;;;;;;5125125;28;20058;-74
2022/05/10 08:16:13;;;;;;;7.55;6.20;;;19.00;82.00;;;;;;5111417;28;20047;-73
2022/05/10 08:18:48;;;;;;;10.10;6.65;;;19.20;82.20;;;;;;5108996;28;20070;-73
2022/05/10 08:21:21;;;;;;;9.95;7.05;;;19.40;81.20;;;;;;5111273;28;20048;-72
2022/05/10 08:23:55;;;;;;;13.52;7.07;;;19.50;79.90;;;;;;5110181;28;20066;-73
2022/05/10 08:26:27;;;;;;;6.97;6.07;;;19.70;79.40;;;;;;5112648;28;20070;-73
2022/05/10 08:29:00;;;;;;;8.10;6.45;;;19.70;79.30;;;;;;5124696;28;20047;-75
2022/05/10 08:31:32;;;;;;;10.53;6.33;;;19.80;79.00;;;;;;5094745;28;20059;-72
2022/05/10 08:34:05;;;;;;;7.25;6.20;;;19.80;78.70;;;;;;5110931;28;20309;-72
2022/05/10 08:36:38;;;;;;;12.43;6.80;;;19.90;78.20;;;;;;5124673;28;20047;-73
2022/05/10 08:39:10;;;;;;;12.00;6.63;;;20.00;77.90;;;;;;5112319;28;20058;-74
2022/05/10 08:41:49;;;;;;;10.07;7.03;;;20.00;75.70;;;;;;5111756;28;20079;-73
2022/05/10 08:44:27;;;;;;;9.45;6.38;;;20.00;76.50;;;;;;5110044;28;20511;-73
2022/05/10 08:47:06;;;;;;;9.70;6.38;;;20.00;76.00;;;;;;5109997;28;20648;-73
2022/05/10 08:49:50;;;;;;;8.98;6.55;;;20.00;76.20;;;;;;5110451;28;20039;-74
2022/05/10 08:52:30;;;;;;;10.70;6.85;;;20.10;75.90;;;;;;5111593;28;20082;-73
2022/05/10 08:55:04;;;;;;;10.55;6.90;;;20.10;74.40;;;;;;5108613;28;20700;-74
2022/05/10 08:57:53;;;;;;;10.77;7.15;;;20.10;74.80;;;;;;5109924;28;20511;-74
2022/05/10 09:01:02;;;;;;;8.70;6.93;;;20.20;74.90;;;;;;5110269;28;20048;-73
2022/05/10 09:04:19;;;;;;;9.13;7.20;;;20.20;72.90;;;;;;5068581;29;20063;-73
2022/05/10 09:07:10;;;;;;;8.32;6.35;;;20.30;74.40;;;;;;5111311;28;20054;-73
2022/05/10 09:10:12;;;;;;;10.40;7.97;;;20.50;74.40;;;;;;5111995;28;20048;-73
2022/05/10 09:13:01;;;;;;;9.70;7.43;;;20.60;73.60;;;;;;5074982;28;20055;-74
2022/05/10 09:15:50;;;;;;;8.35;7.40;;;20.60;73.30;;;;;;5116201;28;20055;-72
2022/05/10 09:18:40;;;;;;;9.30;7.13;;;20.60;73.70;;;;;;5107499;28;20536;-73
2022/05/10 09:21:24;;;;;;;9.07;7.65;;;20.70;71.70;;;;;;5108878;28;20558;-74
2022/05/10 09:24:02;;;;;;;10.68;7.30;;;20.80;73.00;;;;;;5110352;28;20522;-72
2022/05/10 09:26:45;;;;;;;8.82;7.60;;;20.90;71.90;;;;;;5110534;28;20054;-73
2022/05/10 09:29:26;;;;;;;7.68;6.88;;;20.80;72.20;;;;;;5111451;28;20420;-71
2022/05/10 09:35:13;;;;;;;9.23;7.33;;;20.90;71.40;;;;;;5111175;28;20051;-73
2022/05/10 09:38:09;;;;;;;17.45;7.13;;;21.00;71.00;;;;;;5111695;28;20054;-73
2022/05/10 09:40:41;;;;;;;10.40;6.57;;;21.10;69.10;;;;;;5127398;28;20053;-72
2022/05/10 09:43:27;;;;;;;10.07;6.95;;;21.20;69.50;;;;;;5109986;28;20047;-73
2022/05/10 09:46:12;;;;;;;11.27;7.03;;;21.20;69.90;;;;;;5111352;28;20078;-73
2022/05/10 09:48:46;;;;;;;7.90;6.75;;;21.20;67.10;;;;;;5125727;28;20051;-74
2022/05/10 09:51:43;;;;;;;;;;;21.30;68.20;;;;;;5112229;28;20051;-72
2022/05/10 09:54:31;;;;;;;10.45;7.10;;;21.20;67.40;;;;;;5111635;28;19927;-73
2022/05/10 09:57:10;;;;;;;7.68;6.22;;;21.30;68.50;;;;;;5110669;28;20624;-72
2022/05/10 09:59:47;;;;;;;9.98;6.35;;;21.40;67.60;;;;;;5128730;28;20047;-73
2022/05/10 10:02:32;;;;;;;6.28;5.68;;;21.60;65.60;;;;;;5111884;28;20055;-72
2022/05/10 10:05:25;;;;;;;8.98;5.97;;;21.60;64.30;;;;;;5111332;28;20059;-73
2022/05/10 10:07:58;;;;;;;9.60;6.13;;;21.70;62.90;;;;;;5109089;28;21425;-73
2022/05/10 10:10:38;;;;;;;8.82;6.20;;;21.80;63.90;;;;;;5101560;28;20051;-73
2022/05/10 10:13:32;;;;;;;9.65;6.10;;;22.00;62.30;;;;;;5125151;28;20055;-73
2022/05/10 10:16:20;;;;;;;6.47;5.68;;;22.20;60.10;;;;;;5101165;28;20051;-72
2022/05/10 10:18:59;;;;;;;6.75;6.03;;;22.10;60.60;;;;;;5112121;28;20701;-72
2022/05/10 10:21:48;;;;;;;11.15;5.72;;;22.20;62.10;;;;;;5104581;28;20058;-73
2022/05/10 10:24:41;;;;;;;10.48;6.47;;;22.30;60.80;;;;;;5127434;28;20047;-71
2022/05/10 10:27:33;;;;;;;8.85;6.55;;;22.60;60.90;;;;;;5112501;28;20423;-73
2022/05/10 10:30:07;;;;;;;6.88;6.05;;;22.80;60.50;;;;;;5114590;28;20043;-73
2022/05/10 10:32:48;;;;;;;7.68;5.40;;;23.00;60.90;;;;;;5116547;28;20062;-73
2022/05/10 10:35:57;;;;;;;8.35;5.70;;;23.20;58.90;;;;;;5115133;28;20058;-73
2022/05/10 10:39:05;;;;;;;7.75;5.72;;;23.30;57.40;;;;;;5109380;28;20047;-73
2022/05/10 10:41:53;;;;;;;8.88;5.22;;;23.40;57.30;;;;;;5118062;28;20043;-73
2022/05/10 10:44:31;;;;;;;5.43;4.93;;;23.30;56.00;;;;;;5104009;28;20713;-72
2022/05/10 10:47:36;;;;;;;10.90;4.90;;;23.40;57.90;;;;;;5112901;28;20054;-72
2022/05/10 10:50:08;;;;;;;6.55;5.15;;;23.40;53.80;;;;;;5104233;28;20059;-72
2022/05/10 10:52:41;;;;;;;5.85;4.82;;;23.50;55.50;;;;;;5113689;28;20055;-73
2022/05/10 10:55:18;;;;;;;6.40;5.32;;;23.60;55.80;;;;;;5114037;28;20526;-74
2022/05/10 10:58:15;;;;;;;6.18;5.00;;;24.00;57.20;;;;;;5114947;28;20066;-73
2022/05/10 11:00:55;;;;;;;5.72;5.10;;;24.50;54.20;;;;;;5112708;29;20058;-74
2022/05/10 11:03:53;;;;;;;6.97;5.30;;;25.00;55.90;;;;;;5114223;28;20043;-73
2022/05/10 11:06:27;;;;;;;5.50;4.90;;;25.30;54.80;;;;;;5113450;28;20039;-73
2022/05/10 11:09:20;;;;;;;8.38;6.25;;;25.50;54.30;;;;;;5113230;28;20054;-74
2022/05/10 11:12:06;;;;;;;7.10;6.40;;;26.00;55.60;;;;;;5115253;28;20050;-74
2022/05/10 11:14:46;;;;;;;8.27;6.45;;;26.10;55.10;;;;;;5114579;28;20051;-73
2022/05/10 11:17:56;;;;;;;8.38;5.18;;;26.40;53.90;;;;;;5094076;29;20054;-74
2022/05/10 11:20:38;;;;;;;6.22;5.25;;;26.50;54.10;;;;;;5047519;29;20058;-74
2022/05/10 11:23:31;;;;;;;5.80;5.18;;;26.80;53.40;;;;;;5105040;28;20050;-75
2022/05/10 11:26:10;;;;;;;6.75;5.07;;;27.20;51.60;;;;;;5118021;28;20062;-73
2022/05/10 11:29:14;;;;;;;8.10;5.80;;;27.30;50.50;;;;;;5071191;28;20157;-73
2022/05/10 11:32:07;;;;;;;6.63;6.03;;;27.40;51.90;;;;;;5102308;28;20039;-75
2022/05/10 11:35:11;;;;;;;9.45;5.93;;;27.50;52.60;;;;;;5086989;28;20353;-73
2022/05/10 11:37:55;;;;;;;8.95;6.20;;;27.60;51.30;;;;;;5092713;28;20325;-73
2022/05/10 11:40:54;;;;;;;8.50;6.53;;;27.60;51.10;;;;;;5088783;28;20082;-73
2022/05/10 11:43:55;;;;;;;13.57;6.68;;;27.60;49.60;;;;;;5068936;28;20047;-73
2022/05/10 11:46:43;;;;;;;8.10;6.10;;;28.20;50.40;;;;;;5090728;28;20051;-75
2022/05/10 11:49:51;;;;;;;5.88;5.28;;;28.70;48.90;;;;;;5084727;28;20043;-74
2022/05/10 11:52:36;;;;;;;9.40;6.20;;;29.00;49.00;;;;;;5095995;28;20047;-74
2022/05/10 11:55:36;;;;;;;6.28;5.65;;;29.10;46.90;;;;;;5087077;28;20582;-73
2022/05/10 11:58:15;;;;;;;9.20;5.57;;;29.30;47.20;;;;;;5086150;28;20788;-72
2022/05/10 12:01:02;;;;;;;9.20;6.07;;;28.60;47.00;;;;;;5086845;28;20047;-74
2022/05/10 12:03:40;;;;;;;6.07;5.38;;;28.30;47.10;;;;;;5075071;28;20054;-75
2022/05/10 12:06:22;;;;;;;;;;;28.30;48.00;;;;;;5080424;28;20035;-73
2022/05/10 12:09:00;;;;;;;7.65;6.15;;;28.40;48.60;;;;;;5084181;28;19930;-73
2022/05/10 12:11:34;;;;;;;10.40;6.07;;;28.70;49.40;;;;;;5080337;28;20056;-73
2022/05/10 12:22:59;;;;;;;10.10;6.38;;;28.30;48.60;;;;;;5084777;28;20054;-73
2022/05/10 12:26:00;;;;;;;12.23;6.50;;;28.60;47.00;;;;;;5076075;28;20086;-77
2022/05/10 12:28:46;;;;;;;10.43;6.30;;;28.60;46.30;;;;;;5072906;28;20070;-75
2022/05/10 12:31:23;;;;;;;7.90;6.40;;;28.80;48.20;;;;;;5079851;28;20062;-76
2022/05/10 12:33:58;;;;;;;11.82;5.88;;;28.60;47.20;;;;;;5064943;28;21107;-76
2022/05/10 12:36:33;;;;;;;10.55;5.93;;;28.90;47.30;;;;;;5083722;28;20054;-76
2022/05/10 12:39:30;;;;;;;9.15;6.25;;;28.80;45.50;;;;;;5072810;28;20098;-75
2022/05/10 12:42:22;;;;;;;7.70;5.68;;;29.00;44.80;;;;;;5074320;28;20050;-75
2022/05/10 12:45:21;;;;;;;12.00;5.57;;;29.10;45.80;;;;;;5091392;28;20052;-76
2022/05/10 12:48:09;;;;;;;6.05;5.45;;;29.60;45.20;;;;;;5058738;28;20055;-74
2022/05/10 12:51:00;;;;;;;5.50;4.85;;;30.20;44.00;;;;;;5087685;28;20054;-75
2022/05/10 12:53:42;;;;;;;7.68;4.80;;;30.20;41.90;;;;;;5069659;29;20419;-75
2022/05/10 12:56:22;;;;;;;11.77;6.60;;;30.20;43.80;;;;;;5087275;28;20532;-75
2022/05/10 12:59:06;;;;;;;7.13;6.43;;;30.10;45.20;;;;;;5103927;28;20066;-75
2022/05/10 13:01:39;;;;;;;7.53;6.55;;;30.00;44.90;;;;;;5086244;28;20059;-74
2022/05/10 13:04:20;;;;;;;13.15;7.57;;;29.90;46.30;;;;;;5096581;28;20349;-75
2022/05/10 13:07:00;;;;;;;12.73;6.32;;;29.90;45.00;;;;;;5078096;28;20062;-75
2022/05/10 13:10:01;;;;;;;8.40;6.43;;;29.40;45.70;;;;;;5079164;28;20069;-75
2022/05/10 13:12:49;;;;;;;12.82;6.68;;;28.80;45.70;;;;;;5074878;28;20058;-75
2022/05/10 13:15:26;;;;;;;9.32;6.75;;;28.30;47.30;;;;;;5070659;28;20721;-79
2022/05/10 13:18:00;;;;;;;10.32;6.47;;;28.50;47.10;;;;;;5078087;28;20111;-75
2022/05/10 13:20:32;;;;;;;8.68;5.90;;;28.60;46.60;;;;;;5065696;28;20070;-76
2022/05/10 13:23:07;;;;;;;6.63;6.03;;;28.80;46.30;;;;;;5078245;28;20062;-76
2022/05/10 13:25:42;;;;;;;9.30;5.75;;;29.20;45.40;;;;;;5085965;28;20050;-76
2022/05/10 13:28:23;;;;;;;10.50;6.95;;;28.80;45.80;;;;;;5087422;28;20125;-75
2022/05/10 13:30:58;;;;;;;8.10;7.30;;;29.00;47.30;;;;;;5086386;28;20554;-76
2022/05/10 13:33:35;;;;;;;9.77;6.97;;;29.10;47.40;;;;;;5085253;28;21119;-75
2022/05/10 13:36:11;;;;;;;15.27;6.60;;;29.30;46.70;;;;;;5085492;28;20692;-76
2022/05/10 13:38:48;;;;;;;9.07;6.60;;;29.50;46.50;;;;;;5078999;28;20634;-76
2022/05/10 13:41:29;;;;;;;10.98;6.40;;;30.00;46.60;;;;;;5086850;28;20055;-77
2022/05/10 13:44:19;;;;;;;8.70;7.80;;;30.20;45.10;;;;;;5086377;28;20067;-76
2022/05/10 13:46:54;;;;;;;8.38;7.22;;;30.50;43.00;;;;;;5090159;28;20043;-76
2022/05/10 13:49:31;;;;;;;11.15;6.88;;;30.40;43.80;;;;;;5076634;28;20075;-76
2022/05/10 13:52:05;;;;;;;7.40;6.40;;;30.50;43.40;;;;;;5094459;28;20523;-75
2022/05/10 13:54:39;;;;;;;9.57;6.47;;;31.00;42.70;;;;;;5076126;28;20055;-76
2022/05/10 13:57:20;;;;;;;9.57;6.35;;;30.80;42.00;;;;;;5081050;28;20506;-76